Tuesday, February 19, 2019, 7:54 PM EST
Back to Local

KEEN, Keene, Dillant-hopkins Airport

Location: Keene, NH, United States Lat: 42.9
Local Time: 7:54 PM EST ( 0:54 GMT) Lon: -72.267
Time Zone: US/Eastern Elev: 488 ft

Show me the last for .
Show Decoded

2019-02-19 18:56 METAR KEEN 192356Z AUTO 27006KT 10SM CLR M06/M16 A3051 RMK AO2 SLP354 T10611156
                 11011 21061 53015 FZRANO $ =
2019-02-19 17:56 METAR KEEN 192256Z AUTO 28007KT 10SM CLR M06/M16 A3049 RMK AO2 SLP347 T10561161
                 FZRANO $ =
2019-02-19 16:56 METAR KEEN 192156Z AUTO 31006KT 10SM CLR M03/M18 A3046 RMK AO2 SLP336 T10331178
                 FZRANO $ =
2019-02-19 15:56 METAR KEEN 192056Z AUTO 33013KT 10SM CLR M02/M17 A3046 RMK AO2 SLP339 T10221172
                 56004 FZRANO $ =
2019-02-19 14:56 METAR KEEN 191956Z AUTO 35010KT 10SM CLR M01/M16 A3047 RMK AO2 SLP339 T10111156
                 FZRANO $ =
2019-02-19 13:56 METAR KEEN 191856Z AUTO 28008KT 10SM CLR M04/M16 A3046 RMK AO2 SLP339 T10391161
                 FZRANO $ =
2019-02-19 12:56 METAR KEEN 191756Z AUTO 34005KT 10SM CLR M04/M16 A3047 RMK AO2 SNE00 SLP342
                 P0000 60000 T10391156 11033 21183 58002 FZRANO $ =
2019-02-19 11:56 METAR KEEN 191656Z AUTO 36013KT 9SM -SN CLR M04/M16 A3047 RMK AO2 SNB50 SLP341
                 P0000 T10391156 FZRANO $ =
2019-02-19 10:56 METAR KEEN 191556Z AUTO 31009KT 9SM CLR M04/M16 A3049 RMK AO2 SNB38E56 SLP345
                 P0000 T10441156 FZRANO $ =
2019-02-19 09:56 METAR KEEN 191456Z AUTO 33009G17KT 10SM CLR M07/M16 A3048 RMK AO2 SLP344
                 T10671156 51019 FZRANO $ =
2019-02-19 08:56 METAR KEEN 191356Z AUTO 34005KT 10SM CLR M09/M15 A3048 RMK AO2 SLP343 T10891150
                 FZRANO $ =
2019-02-19 07:56 METAR KEEN 191256Z AUTO 00000KT 4SM BR CLR M14/M16 A3046 RMK AO2 SLP335
                 T11391156 FZRANO $ =
2019-02-19 06:56 METAR KEEN 191156Z AUTO 19004KT 10SM CLR M18/M20 A3043 RMK AO2 SLP326 70001
                 T11781200 11122 21178 51026 FZRANO $ =
2019-02-19 05:56 METAR KEEN 191056Z AUTO 00000KT 10SM CLR M17/M19 A3040 RMK AO2 SLP316 T11721189
                 FZRANO $ =
2019-02-19 04:56 METAR KEEN 190956Z AUTO 00000KT 10SM CLR M17/M19 A3037 RMK AO2 SLP307 T11671194
                 FZRANO $ =
2019-02-19 03:56 METAR KEEN 190856Z AUTO 00000KT 10SM CLR M16/M17 A3035 RMK AO2 SLP299 T11561172
                 53021 FZRANO $ =
2019-02-19 02:56 METAR KEEN 190756Z AUTO 00000KT 10SM CLR M15/M17 A3033 RMK AO2 SLP292 T11501172
                 FZRANO $ =
2019-02-19 01:56 METAR KEEN 190656Z AUTO 00000KT 10SM CLR M13/M16 A3030 RMK AO2 SLP283 T11281161
                 FZRANO $ =
2019-02-19 00:56 METAR KEEN 190556Z AUTO 00000KT 10SM CLR M13/M17 A3028 RMK AO2 SLP277 T11281167
                 11056 21128 53026 FZRANO $ =
2019-02-18 23:56 METAR KEEN 190456Z AUTO 00000KT 10SM CLR M10/M15 A3025 RMK AO2 SLP266 T11001150
                 410111106 FZRANO $ =
2019-02-18 22:56 METAR KEEN 190356Z AUTO 34006KT 10SM CLR M09/M15 A3023 RMK AO2 SLP258 T10941150
                 FZRANO $ =
2019-02-18 21:56 METAR KEEN 190256Z AUTO 34008KT 10SM CLR M09/M14 A3020 RMK AO2 SLP250 T10891139
                 51048 FZRANO $ =
2019-02-18 20:56 METAR KEEN 190156Z AUTO 32010G14KT 280V350 10SM FEW038 M08/M13 A3016 RMK AO2
                 SLP236 T10781133 FZRANO $ =
2019-02-18 19:56 METAR KEEN 190056Z AUTO 34005KT 10SM BKN046 M07/M12 A3012 RMK AO2 PRESRR SLP222
                 T10671117 FZRANO $ =

Support USWX by starting your Amazon purchase here.